createdAt,value
2019-03-03T13:14:23.578Z,11.56
2019-03-03T13:17:11.891Z,11.57
2019-03-03T13:19:58.839Z,11.48
2019-03-03T13:22:45.770Z,11.59
2019-03-03T13:25:21.435Z,11.63
2019-03-03T13:28:15.827Z,11.71
2019-03-03T13:31:10.447Z,11.69
2019-03-03T13:33:57.511Z,11.67
2019-03-03T13:36:45.904Z,11.72
2019-03-03T13:39:40.319Z,11.72
2019-03-03T13:42:27.407Z,11.77
2019-03-03T13:44:56.935Z,11.92
2019-03-03T13:47:26.483Z,11.91
2019-03-03T13:49:55.863Z,11.81
2019-03-03T13:52:25.543Z,11.87
2019-03-03T13:54:54.970Z,11.93
2019-03-03T13:57:24.413Z,12.01
2019-03-03T13:59:53.852Z,11.96
2019-03-03T14:02:23.253Z,11.83
2019-03-03T14:04:52.776Z,11.77
2019-03-03T14:07:22.336Z,11.79
2019-03-03T14:09:51.760Z,11.73
2019-03-03T14:12:21.141Z,11.80
2019-03-03T14:14:50.543Z,11.81
2019-03-03T14:17:19.952Z,11.85
2019-03-03T14:19:49.707Z,11.80
2019-03-03T14:22:19.443Z,11.82
2019-03-03T14:24:48.804Z,11.87
2019-03-03T14:27:18.547Z,12.00
2019-03-03T14:29:48.032Z,11.89
2019-03-03T14:32:17.696Z,11.99
2019-03-03T14:34:47.265Z,12.00
2019-03-03T14:37:16.656Z,11.95
2019-03-03T14:39:46.075Z,11.92
2019-03-03T14:42:15.486Z,11.98
2019-03-03T14:44:44.902Z,11.96
2019-03-03T14:47:14.296Z,11.96
2019-03-03T14:49:43.736Z,12.01
2019-03-03T14:52:13.124Z,12.02
2019-03-03T14:54:42.534Z,12.07
2019-03-03T14:57:12.064Z,12.04
2019-03-03T14:59:41.442Z,12.04
2019-03-03T15:02:10.862Z,11.99
2019-03-03T15:04:40.649Z,12.13
2019-03-03T15:07:10.207Z,12.08
2019-03-03T15:09:39.593Z,12.11
2019-03-03T15:12:09.346Z,12.16
2019-03-03T15:14:38.899Z,12.20
2019-03-03T15:17:08.301Z,12.10
2019-03-03T15:19:37.677Z,12.05
2019-03-03T15:22:07.603Z,12.04
2019-03-03T15:24:37.150Z,12.04
2019-03-03T15:27:06.644Z,12.04
2019-03-03T15:29:36.044Z,12.05
2019-03-03T15:32:05.778Z,12.11
2019-03-03T15:34:35.272Z,12.16
2019-03-03T15:37:06.398Z,12.09
2019-03-03T15:39:35.819Z,12.14
2019-03-03T15:42:05.503Z,12.12
2019-03-03T15:44:34.932Z,12.01
2019-03-03T15:47:04.577Z,12.02
2019-03-03T15:49:33.981Z,12.00
2019-03-03T15:52:03.564Z,12.03
2019-03-03T15:54:32.940Z,11.94
2019-03-03T15:57:02.377Z,12.04
2019-03-03T15:59:31.869Z,12.01
2019-03-03T16:02:02.909Z,12.00
2019-03-03T16:04:32.318Z,11.89
2019-03-03T16:07:01.754Z,11.96
2019-03-03T16:09:31.155Z,11.86
2019-03-03T16:12:00.589Z,12.10
2019-03-03T16:14:30.022Z,11.95
2019-03-03T16:16:59.408Z,11.90
2019-03-03T16:19:28.847Z,12.00
2019-03-03T16:21:58.367Z,11.93
2019-03-03T16:24:27.843Z,11.82
2019-03-03T16:26:57.436Z,11.86
2019-03-03T16:29:26.840Z,11.81
2019-03-03T16:31:56.240Z,11.80
2019-03-03T16:34:25.751Z,11.78
2019-03-03T16:36:55.264Z,11.84
2019-03-03T16:39:24.684Z,11.81
2019-03-03T16:41:54.303Z,11.78
2019-03-03T16:44:23.719Z,12.01
2019-03-03T16:46:53.090Z,12.01
2019-03-03T16:49:22.509Z,11.94
2019-03-03T16:51:51.898Z,11.99
2019-03-03T16:54:21.556Z,12.03
2019-03-03T16:56:50.991Z,12.09
2019-03-03T16:59:20.470Z,11.93
2019-03-03T17:01:49.882Z,11.94
2019-03-03T17:04:19.249Z,11.97
2019-03-03T17:06:48.815Z,11.80
2019-03-03T17:09:18.277Z,11.90
2019-03-03T17:11:47.771Z,11.81
2019-03-03T17:14:17.321Z,11.82
2019-03-03T17:16:46.831Z,11.82
2019-03-03T17:19:16.233Z,11.68
2019-03-03T17:21:45.615Z,11.64
2019-03-03T17:24:15.214Z,11.58
2019-03-03T17:26:44.633Z,11.55
2019-03-03T17:29:14.003Z,11.56
2019-03-03T17:31:43.423Z,11.56
2019-03-03T17:34:13.416Z,11.56
2019-03-03T17:36:42.888Z,11.55
2019-03-03T17:39:12.564Z,11.55
2019-03-03T17:41:42.224Z,11.59
2019-03-03T17:44:11.763Z,11.66
2019-03-03T17:46:41.235Z,11.56
2019-03-03T17:49:10.682Z,11.47
2019-03-03T17:51:40.064Z,11.73
2019-03-03T17:54:09.681Z,11.68
2019-03-03T17:56:39.151Z,11.66
2019-03-03T17:59:08.660Z,11.62
2019-03-03T18:01:38.153Z,11.58
2019-03-03T18:04:07.673Z,11.55
2019-03-03T18:06:39.026Z,11.48
2019-03-03T18:09:09.453Z,11.38
2019-03-03T18:11:38.843Z,11.50
2019-03-03T18:14:08.238Z,11.44
2019-03-03T18:16:37.843Z,11.31
2019-03-03T18:19:07.259Z,11.28
2019-03-03T18:21:36.648Z,11.26
2019-03-03T18:24:06.188Z,11.25
2019-03-03T18:26:35.683Z,11.27
2019-03-03T18:29:05.220Z,11.21
2019-03-03T18:31:34.720Z,11.23
2019-03-03T18:34:04.146Z,11.31
2019-03-03T18:36:33.751Z,11.27
2019-03-03T18:39:04.299Z,11.19
2019-03-03T18:41:33.899Z,11.26
2019-03-03T18:44:03.637Z,11.37
2019-03-03T18:46:33.281Z,11.37
2019-03-03T18:49:02.677Z,11.29
2019-03-03T18:51:32.100Z,11.20
2019-03-03T18:54:01.682Z,11.20
2019-03-03T18:56:31.120Z,11.25
2019-03-03T18:59:00.638Z,11.35
2019-03-03T19:01:30.083Z,11.34
2019-03-03T19:03:59.651Z,11.24
2019-03-03T19:06:29.054Z,11.14
2019-03-03T19:08:58.572Z,11.12
2019-03-03T19:11:28.091Z,11.09
2019-03-03T19:13:57.511Z,11.01
2019-03-03T19:16:27.104Z,10.99
2019-03-03T19:18:56.628Z,11.02
2019-03-03T19:21:26.222Z,11.00
2019-03-03T19:23:55.724Z,10.95
2019-03-03T19:26:25.146Z,10.90
2019-03-03T19:28:54.590Z,10.82
2019-03-03T19:31:24.051Z,10.83
2019-03-03T19:33:55.208Z,10.80
2019-03-03T19:36:24.631Z,10.73
2019-03-03T19:38:54.000Z,10.58
2019-03-03T19:41:23.420Z,10.75
2019-03-03T19:43:52.900Z,10.71
2019-03-03T19:46:22.420Z,10.58
2019-03-03T19:48:51.957Z,10.58
2019-03-03T19:51:21.456Z,10.58
2019-03-03T19:53:50.863Z,10.46
2019-03-03T19:56:20.577Z,10.37
2019-03-03T19:58:49.999Z,10.39
2019-03-03T20:01:19.383Z,10.47
2019-03-03T20:03:48.806Z,10.36
2019-03-03T20:06:18.235Z,10.25
2019-03-03T20:08:47.641Z,10.33
2019-03-03T20:11:17.042Z,10.15
2019-03-03T20:13:46.465Z,10.06
2019-03-03T20:16:15.840Z,10.04
2019-03-03T20:18:45.294Z,9.98
2019-03-03T20:21:14.902Z,9.97
2019-03-03T20:23:44.305Z,9.96
2019-03-03T20:26:13.908Z,9.94
2019-03-03T20:28:43.297Z,9.95
2019-03-03T20:31:12.721Z,9.96
2019-03-03T20:33:42.428Z,9.86
2019-03-03T20:36:11.865Z,9.85
2019-03-03T20:38:41.510Z,9.78
2019-03-03T20:41:10.899Z,9.78
2019-03-03T20:43:40.304Z,9.79
2019-03-03T20:46:09.698Z,9.75
2019-03-03T20:48:39.106Z,9.82
2019-03-03T20:51:08.579Z,9.82
2019-03-03T20:53:38.135Z,9.82
2019-03-03T20:56:07.619Z,9.82
2019-03-03T20:58:37.012Z,9.94
2019-03-03T21:01:06.724Z,9.89
2019-03-03T21:03:36.589Z,9.95
2019-03-03T21:06:06.236Z,10.02
2019-03-03T21:08:36.021Z,10.05
2019-03-03T21:11:05.591Z,10.01
2019-03-03T21:13:35.055Z,9.99
2019-03-03T21:16:04.559Z,10.13
2019-03-03T21:18:33.986Z,10.17
2019-03-03T21:21:03.379Z,10.11
2019-03-03T21:23:32.806Z,10.08
2019-03-03T21:26:02.209Z,10.07
2019-03-03T21:28:31.722Z,10.22
2019-03-03T21:31:01.139Z,10.11
2019-03-03T21:33:30.600Z,10.13
2019-03-03T21:36:00.022Z,9.96
2019-03-03T21:38:29.414Z,9.96
2019-03-03T21:40:58.878Z,9.93
2019-03-03T21:43:28.427Z,9.99
2019-03-03T21:45:58.040Z,9.92
2019-03-03T21:48:27.463Z,9.85
2019-03-03T21:50:56.981Z,9.82
2019-03-03T21:53:26.352Z,9.79
2019-03-03T21:55:55.738Z,9.79
2019-03-03T21:58:25.178Z,9.84
2019-03-03T22:00:54.577Z,9.87
2019-03-03T22:03:23.983Z,9.87
2019-03-03T22:05:53.362Z,10.03
2019-03-03T22:08:22.789Z,10.03
2019-03-03T22:10:52.200Z,10.13
2019-03-03T22:13:21.631Z,10.04
2019-03-03T22:15:51.072Z,9.96
2019-03-03T22:18:20.501Z,9.85
2019-03-03T22:20:49.891Z,9.91
2019-03-03T22:23:19.343Z,9.91
2019-03-03T22:25:48.757Z,9.86
2019-03-03T22:28:18.210Z,9.73
2019-03-03T22:30:47.714Z,9.85
2019-03-03T22:33:17.103Z,9.93
2019-03-03T22:35:46.920Z,9.88
2019-03-03T22:38:16.364Z,9.78
2019-03-03T22:40:45.739Z,9.78
2019-03-03T22:43:15.267Z,9.78
2019-03-03T22:45:44.652Z,9.80
2019-03-03T22:48:14.159Z,9.85
2019-03-03T22:50:43.546Z,9.85
2019-03-03T22:53:12.962Z,9.83
2019-03-03T22:55:42.433Z,9.85
2019-03-03T22:58:11.823Z,9.85
2019-03-03T23:00:55.785Z,9.88
2019-03-03T23:03:47.487Z,9.88
2019-03-03T23:06:39.604Z,9.83
2019-03-03T23:09:55.332Z,9.88
2019-03-03T23:12:41.483Z,9.92
2019-03-03T23:15:53.443Z,10.02
2019-03-03T23:18:47.102Z,10.03
2019-03-03T23:22:03.452Z,10.05
2019-03-03T23:25:22.701Z,10.05
2019-03-03T23:27:52.101Z,10.22
2019-03-03T23:30:21.569Z,10.21
2019-03-03T23:32:50.969Z,10.21
2019-03-03T23:35:20.371Z,10.23
2019-03-03T23:37:49.748Z,10.23
2019-03-03T23:40:19.259Z,10.27
2019-03-03T23:42:48.642Z,10.18
2019-03-03T23:45:18.093Z,10.13
2019-03-03T23:47:47.481Z,10.03
2019-03-03T23:50:16.905Z,10.09
2019-03-03T23:52:46.303Z,10.05
2019-03-03T23:55:15.713Z,10.12
2019-03-03T23:57:45.114Z,10.33
